Debi Sharp — WDE8185 — position and weather

sailwx.info

Track history (hours):
 
Tides and Currents Weather Stations Pressure Air Temp Water Temp Dewpoint Dewpoint Depression Visibility Wind Speed Wind Dir Waves Ship Positions

Debi Sharp

Owner: Crounse Corporation, Maysville, KY. More information available from US FCC via Universal Licensing System and Coast Guard Vessel Documentation Center.

Last reported at 2015-May-22 15:33 UTC. Time now 2015-May-27 09:55 UTC.
Position N 38°57' W 084°50'.

Length 41 m.

Type: Towing. MMSI: 367402530.

Date/timePositionNaut miles runAvg speedWind from/ knotsBaromVisibWave heightAir tempDewpointWater temp
2015-May-22 15:33N 38°57' W 084°50'7 5.8
2015-May-22 14:21N 39°04' W 084°53'6 7.1
2015-May-22 13:33N 39°07' W 084°47'4 3.6
2015-May-22 12:32N 39°08' W 084°43'6 6.2
2015-May-22 11:33N 39°04' W 084°36'3 2.6
2015-May-22 10:33N 39°06' W 084°33'4 3.9
2015-May-22 09:33N 39°07' W 084°28'6 6.1
2015-May-22 08:33N 39°03' W 084°23'7 6.5
2015-May-22 07:33N 38°58' W 084°18'6 6.4
2015-May-22 06:33N 38°52' W 084°14'0 0.1
2015-May-22 05:32N 38°52' W 084°14'0 0.2
2015-May-22 04:33N 38°52' W 084°14'1 1.1
2015-May-22 03:33N 38°53' W 084°14'4 3.7
2015-May-22 02:33N 38°57' W 084°17'4 3.8
2015-May-22 01:33N 39°00' W 084°18'4 3.8
2015-May-22 00:33N 39°02' W 084°22'4 3.5
2015-May-21 23:33N 39°04' W 084°26'3 3.4
2015-May-21 22:33N 39°07' W 084°29'4 3.7
2015-May-21 21:33N 39°06' W 084°33'4 3.9
2015-May-21 20:33N 39°05' W 084°38'4 4.2
2015-May-21 19:33N 39°07' W 084°42'3 3.3
2015-May-21 18:33N 39°07' W 084°47'2 2.1
2015-May-21 17:31N 39°06' W 084°49'9 2.9
2015-May-21 14:21N 38°57' W 084°50'  
2015-May-13 12:17N 39°04' W 084°52'4 6.0
2015-May-13 11:32N 39°07' W 084°48'4 4.2
2015-May-13 10:32N 39°07' W 084°42'6 5.6
2015-May-13 09:32N 39°04' W 084°36'6 5.6
2015-May-13 08:33N 39°06' W 084°29'5 4.5
2015-May-13 07:33N 39°03' W 084°25'6 6.2
2015-May-13 06:33N 39°00' W 084°18'6 6.5
2015-May-13 05:33N 38°54' W 084°15'1 1.5
2015-May-13 04:33N 38°53' W 084°14'4 3.8
2015-May-13 03:28N 38°49' W 084°13'4 3.3
2015-May-13 02:21N 38°48' W 084°09'  
Track history (hours):
 
Tides and Currents Weather Stations Pressure Air Temp Water Temp Dewpoint Dewpoint Depression Visibility Wind Speed Wind Dir Waves Ship Positions

Debi Sharp

Owner: Crounse Corporation, Maysville, KY. More information available from US FCC via Universal Licensing System and Coast Guard Vessel Documentation Center.

Last reported at 2015-May-22 15:33 UTC. Time now 2015-May-27 09:55 UTC.
Position N 38°57' W 084°50'.

Length 41 m.

Type: Towing. MMSI: 367402530.

Date/timePositionNaut miles runAvg speedWind from/ knotsBaromVisibWave heightAir tempDewpointWater temp
2015-May-22 15:33N 38°57' W 084°50'7 5.8
2015-May-22 14:21N 39°04' W 084°53'6 7.1
2015-May-22 13:33N 39°07' W 084°47'4 3.6
2015-May-22 12:32N 39°08' W 084°43'6 6.2
2015-May-22 11:33N 39°04' W 084°36'3 2.6
2015-May-22 10:33N 39°06' W 084°33'4 3.9
2015-May-22 09:33N 39°07' W 084°28'6 6.1
2015-May-22 08:33N 39°03' W 084°23'7 6.5
2015-May-22 07:33N 38°58' W 084°18'6 6.4
2015-May-22 06:33N 38°52' W 084°14'0 0.1
2015-May-22 05:32N 38°52' W 084°14'0 0.2
2015-May-22 04:33N 38°52' W 084°14'1 1.1
2015-May-22 03:33N 38°53' W 084°14'4 3.7
2015-May-22 02:33N 38°57' W 084°17'4 3.8
2015-May-22 01:33N 39°00' W 084°18'4 3.8
2015-May-22 00:33N 39°02' W 084°22'4 3.5
2015-May-21 23:33N 39°04' W 084°26'3 3.4
2015-May-21 22:33N 39°07' W 084°29'4 3.7
2015-May-21 21:33N 39°06' W 084°33'4 3.9
2015-May-21 20:33N 39°05' W 084°38'4 4.2
2015-May-21 19:33N 39°07' W 084°42'3 3.3
2015-May-21 18:33N 39°07' W 084°47'2 2.1
2015-May-21 17:31N 39°06' W 084°49'9 2.9
2015-May-21 14:21N 38°57' W 084°50'  
2015-May-13 12:17N 39°04' W 084°52'4 6.0
2015-May-13 11:32N 39°07' W 084°48'4 4.2
2015-May-13 10:32N 39°07' W 084°42'6 5.6
2015-May-13 09:32N 39°04' W 084°36'6 5.6
2015-May-13 08:33N 39°06' W 084°29'5 4.5
2015-May-13 07:33N 39°03' W 084°25'6 6.2
2015-May-13 06:33N 39°00' W 084°18'6 6.5
2015-May-13 05:33N 38°54' W 084°15'1 1.5
2015-May-13 04:33N 38°53' W 084°14'4 3.8
2015-May-13 03:28N 38°49' W 084°13'4 3.3
2015-May-13 02:21N 38°48' W 084°09'  

Dump ship's entire track history